createdAt,value
2018-02-08T00:02:24.223Z,20.40
2018-02-08T00:04:51.807Z,20.80
2018-02-08T00:07:19.383Z,17.40
2018-02-08T00:09:46.991Z,18.73
2018-02-08T00:12:14.588Z,20.00
2018-02-08T00:14:42.207Z,20.17
2018-02-08T00:17:09.814Z,18.43
2018-02-08T00:19:37.418Z,20.93
2018-02-08T00:22:05.042Z,20.17
2018-02-08T00:24:32.633Z,20.13
2018-02-08T00:27:00.225Z,20.60
2018-02-08T00:29:27.850Z,22.07
2018-02-08T00:31:55.436Z,18.33
2018-02-08T00:34:23.037Z,16.40
2018-02-08T00:36:50.629Z,18.37
2018-02-08T00:39:18.993Z,16.47
2018-02-08T00:41:46.561Z,18.43
2018-02-08T00:44:14.956Z,18.17
2018-02-08T00:46:43.309Z,19.60
2018-02-08T00:49:10.885Z,17.97
2018-02-08T00:51:38.494Z,19.03
2018-02-08T00:54:06.121Z,18.57
2018-02-08T00:56:33.778Z,20.17
2018-02-08T00:59:01.352Z,18.03
2018-02-08T01:01:28.970Z,18.70
2018-02-08T01:03:56.564Z,19.23
2018-02-08T01:06:24.178Z,16.87
2018-02-08T01:08:51.750Z,17.43
2018-02-08T01:11:19.387Z,21.17
2018-02-08T01:13:47.774Z,17.80
2018-02-08T01:16:16.087Z,17.80
2018-02-08T01:18:43.659Z,17.23
2018-02-08T01:21:11.314Z,17.27
2018-02-08T01:23:38.917Z,20.47
2018-02-08T01:26:06.577Z,20.37
2018-02-08T01:28:34.223Z,19.17
2018-02-08T01:31:01.829Z,19.63
2018-02-08T01:33:29.432Z,18.67
2018-02-08T01:35:57.022Z,17.93
2018-02-08T01:38:24.614Z,20.10
2018-02-08T01:40:52.244Z,20.43
2018-02-08T01:43:19.846Z,18.80
2018-02-08T01:45:47.430Z,18.60
2018-02-08T01:48:15.020Z,20.00
2018-02-08T01:50:42.626Z,19.10
2018-02-08T01:53:10.197Z,20.27
2018-02-08T01:55:37.801Z,18.63
2018-02-08T01:58:05.454Z,20.80
2018-02-08T02:00:33.053Z,18.67
2018-02-08T02:03:00.668Z,20.73
2018-02-08T02:05:28.285Z,21.40
2018-02-08T02:07:56.767Z,20.13
2018-02-08T02:10:24.359Z,20.87
2018-02-08T02:12:51.963Z,19.93
2018-02-08T02:15:19.554Z,22.33
2018-02-08T02:17:47.891Z,18.27
2018-02-08T02:20:15.516Z,19.57
2018-02-08T02:22:43.116Z,21.77
2018-02-08T02:25:10.693Z,19.50
2018-02-08T02:27:38.315Z,19.90
2018-02-08T02:30:05.884Z,19.63
2018-02-08T02:32:33.453Z,22.70
2018-02-08T02:35:01.119Z,22.20
2018-02-08T02:37:28.728Z,18.23
2018-02-08T02:39:56.317Z,19.80
2018-02-08T02:42:24.685Z,22.70
2018-02-08T02:44:52.295Z,22.07
2018-02-08T02:47:19.901Z,26.03
2018-02-08T02:49:47.903Z,23.50
2018-02-08T02:52:16.267Z,24.60
2018-02-08T02:54:43.867Z,25.17
2018-02-08T02:57:11.980Z,25.20
2018-02-08T02:59:39.595Z,22.27
2018-02-08T03:02:08.066Z,20.67
2018-02-08T03:04:35.659Z,26.87
2018-02-08T03:07:03.322Z,23.10
2018-02-08T03:09:30.922Z,22.70
2018-02-08T03:11:58.534Z,23.60
2018-02-08T03:14:26.150Z,22.80
2018-02-08T03:16:53.747Z,28.63
2018-02-08T03:19:21.365Z,22.33
2018-02-08T03:21:48.959Z,26.23
2018-02-08T03:24:16.535Z,24.13
2018-02-08T03:26:45.013Z,23.43
2018-02-08T03:29:12.633Z,25.70
2018-02-08T03:31:40.243Z,25.20
2018-02-08T03:34:07.873Z,22.97
2018-02-08T03:36:35.493Z,20.67
2018-02-08T03:39:03.090Z,24.20
2018-02-08T03:41:31.463Z,21.00
2018-02-08T03:43:59.053Z,25.13
2018-02-08T03:46:26.648Z,22.10
2018-02-08T03:48:54.240Z,22.20
2018-02-08T03:51:21.886Z,22.63
2018-02-08T03:53:49.496Z,21.63
2018-02-08T03:56:17.866Z,22.57
2018-02-08T03:58:45.462Z,21.17
2018-02-08T04:01:13.119Z,24.27
2018-02-08T04:03:40.718Z,20.13
2018-02-08T04:06:08.287Z,22.80
2018-02-08T04:08:36.477Z,24.03
2018-02-08T04:11:04.077Z,23.33
2018-02-08T04:13:31.667Z,22.03
2018-02-08T04:16:00.032Z,22.37
2018-02-08T04:18:28.386Z,21.87
2018-02-08T04:20:56.192Z,20.80
2018-02-08T04:23:24.549Z,21.23
2018-02-08T04:25:52.136Z,22.80
2018-02-08T04:28:21.412Z,22.43
2018-02-08T04:30:49.008Z,23.10
2018-02-08T04:33:17.394Z,21.77
2018-02-08T04:35:45.748Z,23.27
2018-02-08T04:41:32.226Z,24.20
2018-02-08T04:47:28.348Z,23.87
2018-02-08T04:49:55.933Z,24.27
2018-02-08T04:52:23.527Z,23.20
2018-02-08T04:54:51.894Z,21.97
2018-02-08T04:57:20.309Z,23.37
2018-02-08T04:59:47.937Z,22.77
2018-02-08T05:02:16.017Z,22.70
2018-02-08T05:04:43.630Z,24.07
2018-02-08T05:07:11.244Z,24.27
2018-02-08T05:09:38.835Z,23.77
2018-02-08T05:12:06.429Z,22.40
2018-02-08T05:14:34.104Z,23.50
2018-02-08T05:17:01.692Z,21.47
2018-02-08T05:19:29.311Z,21.97
2018-02-08T05:21:56.933Z,24.30
2018-02-08T05:24:24.530Z,24.37
2018-02-08T05:26:52.171Z,25.13
2018-02-08T05:29:19.738Z,24.07
2018-02-08T05:31:48.117Z,22.73
2018-02-08T05:34:15.723Z,25.07
2018-02-08T05:36:43.345Z,22.57
2018-02-08T05:39:10.933Z,23.07
2018-02-08T05:41:38.585Z,23.47
2018-02-08T05:44:06.232Z,25.83
2018-02-08T05:46:33.815Z,22.80
2018-02-08T05:49:01.424Z,24.17
2018-02-08T05:51:29.016Z,26.60
2018-02-08T05:53:56.616Z,27.07
2018-02-08T05:56:24.214Z,29.27
2018-02-08T05:58:51.800Z,24.30
2018-02-08T06:01:19.462Z,23.20
2018-02-08T06:03:47.084Z,26.27
2018-02-08T06:06:15.425Z,21.17
2018-02-08T06:08:43.003Z,25.20
2018-02-08T06:11:10.620Z,24.17
2018-02-08T06:13:38.214Z,24.87
2018-02-08T06:16:05.798Z,29.47
2018-02-08T06:18:34.200Z,28.20
2018-02-08T06:21:01.799Z,25.43
2018-02-08T06:23:29.392Z,25.80
2018-02-08T06:25:56.981Z,22.33
2018-02-08T06:28:24.568Z,25.80
2018-02-08T06:30:53.010Z,25.87
2018-02-08T06:33:20.605Z,22.50
2018-02-08T06:35:48.190Z,22.63
2018-02-08T06:38:16.573Z,26.83
2018-02-08T06:40:44.920Z,28.00
2018-02-08T06:43:12.506Z,26.10
2018-02-08T06:45:40.126Z,27.97
2018-02-08T06:48:07.720Z,27.07
2018-02-08T06:50:35.329Z,27.17
2018-02-08T06:53:02.948Z,28.63
2018-02-08T06:55:30.553Z,27.13
2018-02-08T06:57:58.899Z,29.63
2018-02-08T07:00:26.509Z,32.93
2018-02-08T07:02:54.861Z,32.27
2018-02-08T07:05:22.453Z,32.53
2018-02-08T07:07:50.795Z,32.27
2018-02-08T07:10:18.427Z,28.10
2018-02-08T07:12:46.030Z,28.80
2018-02-08T07:15:13.612Z,38.20
2018-02-08T07:17:41.275Z,30.17
2018-02-08T07:20:12.382Z,31.20
2018-02-08T07:22:39.980Z,31.73
2018-02-08T07:25:08.000Z,33.10
2018-02-08T07:27:35.578Z,31.60
2018-02-08T07:30:03.184Z,32.20
2018-02-08T07:32:30.801Z,30.87
2018-02-08T07:34:58.383Z,33.27
2018-02-08T07:37:26.005Z,32.17
2018-02-08T07:39:53.597Z,32.43
2018-02-08T07:42:21.223Z,31.37
2018-02-08T07:44:48.885Z,32.40
2018-02-08T07:47:16.465Z,32.53
2018-02-08T07:49:44.862Z,30.60
2018-02-08T07:52:12.395Z,31.93
2018-02-08T07:54:39.973Z,29.13
2018-02-08T07:57:08.326Z,30.70
2018-02-08T07:59:35.906Z,31.47
2018-02-08T08:02:03.494Z,28.53
2018-02-08T08:04:31.858Z,30.17
2018-02-08T08:06:59.454Z,30.87
2018-02-08T08:09:27.084Z,39.53
2018-02-08T08:11:54.682Z,33.40
2018-02-08T08:14:22.288Z,30.53
2018-02-08T08:16:49.853Z,27.27
2018-02-08T08:19:17.425Z,30.37
2018-02-08T08:21:44.992Z,30.37
2018-02-08T08:24:12.587Z,33.83
2018-02-08T08:26:40.939Z,30.83
2018-02-08T08:29:08.520Z,32.23
2018-02-08T08:31:36.099Z,31.60
2018-02-08T08:34:03.679Z,28.40
2018-02-08T08:36:31.266Z,30.57
2018-02-08T08:38:59.306Z,30.43
2018-02-08T08:41:27.700Z,31.50
2018-02-08T08:43:55.369Z,32.37
2018-02-08T08:46:23.049Z,28.90
2018-02-08T08:48:50.642Z,30.47
2018-02-08T08:51:18.203Z,30.40
2018-02-08T08:53:45.777Z,30.87
2018-02-08T08:56:13.515Z,29.77
2018-02-08T08:58:41.095Z,30.90
2018-02-08T09:01:08.693Z,32.07
2018-02-08T09:03:37.504Z,30.47
2018-02-08T09:06:05.155Z,28.50
2018-02-08T09:08:32.713Z,28.83
2018-02-08T09:11:00.303Z,32.40
2018-02-08T09:13:27.893Z,30.20
2018-02-08T09:15:55.454Z,29.03
2018-02-08T09:18:23.102Z,31.87
2018-02-08T09:20:50.684Z,27.57
2018-02-08T09:23:19.008Z,29.30
2018-02-08T09:25:46.582Z,31.00
2018-02-08T09:28:14.205Z,32.73
2018-02-08T09:30:41.785Z,27.37
2018-02-08T09:33:09.372Z,31.53
2018-02-08T09:35:36.952Z,32.17
2018-02-08T09:38:04.561Z,31.17
2018-02-08T09:40:33.019Z,28.80
2018-02-08T09:43:00.604Z,30.47
2018-02-08T09:45:28.175Z,31.70
2018-02-08T09:47:55.887Z,32.43
2018-02-08T09:50:23.456Z,30.37
2018-02-08T09:52:51.084Z,32.07
2018-02-08T09:55:18.737Z,34.50
2018-02-08T09:57:46.367Z,31.07
2018-02-08T10:00:14.016Z,33.13
2018-02-08T10:02:46.647Z,29.47
2018-02-08T10:05:14.797Z,28.67
2018-02-08T10:07:42.641Z,32.03
2018-02-08T10:10:10.250Z,30.90
2018-02-08T10:12:37.850Z,33.37
2018-02-08T10:15:05.482Z,33.07
2018-02-08T10:17:34.462Z,32.03
2018-02-08T10:20:02.050Z,29.83
2018-02-08T10:22:30.396Z,33.30
2018-02-08T10:24:58.007Z,30.23
2018-02-08T10:27:25.613Z,32.80
2018-02-08T10:29:53.673Z,45.93
2018-02-08T10:32:21.289Z,32.67
2018-02-08T10:34:48.855Z,32.53
2018-02-08T10:37:17.247Z,31.90
2018-02-08T10:39:45.633Z,29.93
2018-02-08T10:42:14.736Z,32.37
2018-02-08T10:44:43.095Z,32.60
2018-02-08T10:47:11.474Z,32.90
2018-02-08T10:49:39.103Z,35.53
2018-02-08T10:52:06.730Z,31.70
2018-02-08T10:54:34.435Z,33.33
2018-02-08T10:57:04.401Z,32.60
2018-02-08T10:59:32.059Z,37.20
2018-02-08T11:02:00.638Z,33.27
2018-02-08T11:04:28.272Z,43.23
2018-02-08T11:06:55.915Z,32.10
2018-02-08T11:09:23.756Z,36.83
2018-02-08T11:11:51.501Z,34.83
2018-02-08T11:14:19.096Z,32.37
2018-02-08T11:16:47.474Z,31.70
2018-02-08T11:19:15.085Z,33.50
2018-02-08T11:21:42.691Z,34.20
2018-02-08T11:24:10.301Z,37.60
2018-02-08T11:26:37.909Z,30.20
2018-02-08T11:29:05.554Z,44.87
2018-02-08T11:31:34.050Z,40.10
2018-02-08T11:34:01.616Z,34.03
2018-02-08T11:36:29.198Z,34.20
2018-02-08T11:38:56.922Z,31.47
2018-02-08T11:41:24.544Z,35.97
2018-02-08T11:43:52.180Z,30.90
2018-02-08T11:46:19.762Z,33.23
2018-02-08T11:48:47.373Z,30.57
2018-02-08T11:51:15.907Z,33.07
2018-02-08T11:53:43.527Z,29.77
2018-02-08T11:56:11.167Z,30.83
2018-02-08T11:58:40.381Z,29.00
2018-02-08T12:01:08.463Z,30.63
2018-02-08T12:03:36.122Z,30.30
2018-02-08T12:06:04.549Z,29.70
2018-02-08T12:08:32.269Z,33.37
2018-02-08T12:11:01.184Z,27.67
2018-02-08T12:13:29.622Z,29.87
2018-02-08T12:15:58.300Z,31.97
2018-02-08T12:18:25.913Z,31.67
2018-02-08T12:20:54.761Z,32.97
2018-02-08T12:23:23.006Z,29.50
2018-02-08T12:25:50.642Z,32.00
2018-02-08T12:28:19.052Z,29.60
2018-02-08T12:30:46.667Z,31.80
2018-02-08T12:33:15.176Z,33.83
2018-02-08T12:35:44.483Z,30.93
2018-02-08T12:38:13.401Z,30.83
2018-02-08T12:40:41.175Z,32.33
2018-02-08T12:43:08.817Z,29.67
2018-02-08T12:45:39.950Z,34.03
2018-02-08T12:48:07.528Z,31.70
2018-02-08T12:50:37.004Z,35.80
2018-02-08T12:53:05.480Z,31.83
2018-02-08T12:55:34.084Z,34.97
2018-02-08T12:58:02.586Z,33.07
2018-02-08T13:00:30.230Z,30.97
2018-02-08T13:02:57.856Z,31.63
2018-02-08T13:05:25.652Z,33.67
2018-02-08T13:07:54.341Z,35.03
2018-02-08T13:10:22.033Z,32.37
2018-02-08T13:12:49.678Z,32.43
2018-02-08T13:15:17.329Z,32.70
2018-02-08T13:17:45.001Z,30.27
2018-02-08T13:20:12.791Z,29.37
2018-02-08T13:22:41.255Z,32.23
2018-02-08T13:25:08.901Z,37.20
2018-02-08T13:27:37.485Z,28.43
2018-02-08T13:30:05.181Z,34.43
2018-02-08T13:32:34.486Z,31.87
2018-02-08T13:35:02.128Z,30.70
2018-02-08T13:37:29.761Z,38.53
2018-02-08T13:40:08.768Z,32.63
2018-02-08T13:42:36.398Z,29.10
2018-02-08T13:45:04.072Z,33.30
2018-02-08T13:47:38.248Z,30.50
2018-02-08T13:50:20.757Z,33.17
2018-02-08T13:52:51.634Z,29.00
2018-02-08T13:55:35.003Z,32.60
2018-02-08T14:01:16.383Z,30.10
2018-02-08T14:03:45.099Z,29.33
2018-02-08T14:06:13.463Z,29.00
2018-02-08T14:08:41.810Z,28.23
2018-02-08T14:11:09.398Z,30.63
2018-02-08T14:13:37.184Z,27.23
2018-02-08T14:16:04.843Z,29.50
2018-02-08T14:18:32.427Z,31.83
2018-02-08T14:21:00.036Z,28.03
2018-02-08T14:23:27.704Z,31.60
2018-02-08T14:25:55.299Z,28.00
2018-02-08T14:28:22.872Z,29.70
2018-02-08T14:30:50.428Z,28.97
2018-02-08T14:33:18.021Z,27.93
2018-02-08T14:35:45.614Z,28.57
2018-02-08T14:38:13.197Z,27.90
2018-02-08T14:40:40.764Z,27.73
2018-02-08T14:43:08.351Z,29.60
2018-02-08T14:45:35.941Z,28.30
2018-02-08T14:48:03.519Z,25.77
2018-02-08T14:50:31.123Z,82.93
2018-02-08T14:52:58.726Z,33.80
2018-02-08T14:55:27.547Z,28.67
2018-02-08T14:57:55.177Z,51.47
2018-02-08T15:00:22.766Z,28.07
2018-02-08T15:02:54.400Z,29.10
2018-02-08T15:05:22.731Z,32.13
2018-02-08T15:07:51.292Z,29.20
2018-02-08T15:10:18.871Z,30.30
2018-02-08T15:12:46.558Z,30.60
2018-02-08T15:15:14.907Z,29.63
2018-02-08T15:17:42.465Z,33.67
2018-02-08T15:20:10.780Z,32.93
2018-02-08T15:22:38.358Z,35.20
2018-02-08T15:25:07.281Z,32.50
2018-02-08T15:27:35.629Z,35.50
2018-02-08T15:30:03.260Z,35.30
2018-02-08T15:32:31.784Z,32.13
2018-02-08T15:34:59.349Z,33.47
2018-02-08T15:37:26.941Z,35.30
2018-02-08T15:39:54.536Z,35.70
2018-02-08T15:42:22.106Z,35.50
2018-02-08T15:44:49.674Z,36.63
2018-02-08T15:47:18.823Z,36.23
2018-02-08T15:49:46.458Z,39.07
2018-02-08T15:52:15.026Z,38.53
2018-02-08T15:54:42.608Z,36.40
2018-02-08T15:57:10.206Z,37.60
2018-02-08T15:59:37.788Z,41.43
2018-02-08T16:02:06.141Z,44.90
2018-02-08T16:04:34.504Z,39.07
2018-02-08T16:07:02.175Z,38.63
2018-02-08T16:09:29.767Z,41.80
2018-02-08T16:11:58.389Z,41.33
2018-02-08T16:14:26.853Z,40.40
2018-02-08T16:16:55.016Z,49.67
2018-02-08T16:19:22.601Z,44.07
2018-02-08T16:21:50.174Z,40.40
2018-02-08T16:24:18.368Z,37.37
2018-02-08T16:26:46.723Z,42.77
2018-02-08T16:29:14.354Z,40.63
2018-02-08T16:31:41.963Z,44.17
2018-02-08T16:34:10.294Z,44.83
2018-02-08T16:36:37.892Z,40.63
2018-02-08T16:39:05.584Z,40.83
2018-02-08T16:41:33.945Z,43.73
2018-02-08T16:44:01.557Z,41.47
2018-02-08T16:46:29.166Z,44.97
2018-02-08T16:48:56.740Z,44.77
2018-02-08T16:51:24.399Z,40.80
2018-02-08T16:53:51.991Z,40.80
2018-02-08T16:56:19.579Z,48.40
2018-02-08T16:58:48.083Z,43.97
2018-02-08T17:01:15.696Z,46.77
2018-02-08T17:03:43.283Z,47.50
2018-02-08T17:06:10.886Z,44.30
2018-02-08T17:08:38.486Z,48.77
2018-02-08T17:11:06.918Z,44.83
2018-02-08T17:13:34.580Z,41.73
2018-02-08T17:16:03.182Z,42.60
2018-02-08T17:18:30.768Z,39.50
2018-02-08T17:20:59.126Z,41.57
2018-02-08T17:23:26.736Z,41.73
2018-02-08T17:25:54.335Z,41.27
2018-02-08T17:28:22.706Z,41.10
2018-02-08T17:30:51.129Z,44.70
2018-02-08T17:33:18.766Z,41.50
2018-02-08T17:35:46.409Z,43.20
2018-02-08T17:38:14.113Z,41.07
2018-02-08T17:40:42.597Z,46.40
2018-02-08T17:43:10.233Z,47.77
2018-02-08T17:45:38.774Z,43.00
2018-02-08T17:48:06.411Z,41.50
2018-02-08T17:50:34.993Z,47.37
2018-02-08T17:53:02.885Z,45.57
2018-02-08T17:55:30.567Z,45.97
2018-02-08T17:57:58.523Z,45.50
2018-02-08T18:00:26.578Z,46.43
2018-02-08T18:02:54.212Z,46.87
2018-02-08T18:05:21.866Z,41.33
2018-02-08T18:07:49.466Z,47.40
2018-02-08T18:10:17.838Z,43.83
2018-02-08T18:12:45.472Z,42.77
2018-02-08T18:15:13.105Z,42.43
2018-02-08T18:17:40.742Z,46.40
2018-02-08T18:20:09.121Z,48.60
2018-02-08T18:22:36.713Z,46.43
2018-02-08T18:25:05.097Z,44.63
2018-02-08T18:27:33.569Z,47.57
2018-02-08T18:30:01.161Z,48.43
2018-02-08T18:32:30.476Z,41.20
2018-02-08T18:34:58.095Z,48.33
2018-02-08T18:37:25.771Z,43.00
2018-02-08T18:39:53.425Z,45.03
2018-02-08T18:42:21.805Z,48.90
2018-02-08T18:44:49.392Z,43.30
2018-02-08T18:47:17.734Z,43.57
2018-02-08T18:49:45.304Z,45.80
2018-02-08T18:52:12.910Z,45.60
2018-02-08T18:54:41.320Z,47.10
2018-02-08T18:57:08.960Z,54.70
2018-02-08T18:59:36.600Z,50.23
2018-02-08T19:02:04.228Z,50.50
2018-02-08T19:04:31.825Z,44.87
2018-02-08T19:07:02.501Z,46.57
2018-02-08T19:09:30.868Z,47.93
2018-02-08T19:11:59.252Z,50.37
2018-02-08T19:14:27.607Z,42.23
2018-02-08T19:16:55.250Z,47.87
2018-02-08T19:19:22.833Z,47.90
2018-02-08T19:21:50.453Z,52.47
2018-02-08T19:24:18.049Z,45.87
2018-02-08T19:26:45.649Z,46.43
2018-02-08T19:29:14.227Z,44.87
2018-02-08T19:31:41.814Z,45.17
2018-02-08T19:34:09.410Z,43.43
2018-02-08T19:36:37.092Z,45.07
2018-02-08T19:39:04.748Z,49.33
2018-02-08T19:41:32.416Z,43.57
2018-02-08T19:44:00.035Z,44.23
2018-02-08T19:46:27.656Z,44.83
2018-02-08T19:48:55.348Z,44.13
2018-02-08T19:51:22.989Z,48.90
2018-02-08T19:53:50.608Z,44.97
2018-02-08T19:56:19.011Z,43.97
2018-02-08T19:58:46.643Z,47.03
2018-02-08T20:01:15.237Z,45.77
2018-02-08T20:03:42.853Z,44.77
2018-02-08T20:06:10.453Z,43.67
2018-02-08T20:08:38.048Z,42.20
2018-02-08T20:11:06.435Z,47.30
2018-02-08T20:13:34.805Z,46.30
2018-02-08T20:16:02.440Z,50.90
2018-02-08T20:18:30.038Z,48.77
2018-02-08T20:20:57.748Z,44.73
2018-02-08T20:23:25.350Z,46.97
2018-02-08T20:25:52.977Z,40.70
2018-02-08T20:28:20.625Z,49.60
2018-02-08T20:33:59.769Z,58.20
2018-02-08T20:36:27.413Z,63.03
2018-02-08T20:38:55.026Z,54.17
2018-02-08T20:41:22.855Z,52.70
2018-02-08T20:43:51.259Z,51.00
2018-02-08T20:46:18.862Z,46.23
2018-02-08T20:48:47.041Z,49.13
2018-02-08T20:51:14.654Z,45.80
2018-02-08T20:53:42.309Z,48.23
2018-02-08T20:56:09.922Z,46.70
2018-02-08T20:58:37.554Z,46.97
2018-02-08T21:01:05.136Z,45.77
2018-02-08T21:03:34.132Z,48.43
2018-02-08T21:06:02.561Z,50.03
2018-02-08T21:08:30.985Z,44.80
2018-02-08T21:10:58.563Z,46.60
2018-02-08T21:13:26.143Z,46.60
2018-02-08T21:15:53.960Z,45.00
2018-02-08T21:18:21.569Z,51.30
2018-02-08T21:20:49.175Z,49.27
2018-02-08T21:23:16.827Z,51.03
2018-02-08T21:25:44.464Z,43.10
2018-02-08T21:28:12.107Z,43.33
2018-02-08T21:30:39.709Z,51.67
2018-02-08T21:33:07.306Z,42.37
2018-02-08T21:35:34.991Z,42.57
2018-02-08T21:38:03.345Z,47.97
2018-02-08T21:40:30.932Z,46.67
2018-02-08T21:42:59.314Z,47.10
2018-02-08T21:45:26.904Z,45.33
2018-02-08T21:47:54.504Z,52.60
2018-02-08T21:50:22.182Z,55.03
2018-02-08T21:52:49.783Z,53.97
2018-02-08T21:55:18.164Z,51.93
2018-02-08T21:57:46.537Z,56.10
2018-02-08T22:00:14.167Z,51.77
2018-02-08T22:02:41.771Z,50.40
2018-02-08T22:05:09.375Z,53.77
2018-02-08T22:07:37.021Z,55.77
2018-02-08T22:10:05.396Z,53.50
2018-02-08T22:12:33.904Z,51.40
2018-02-08T22:15:01.480Z,47.80
2018-02-08T22:17:29.076Z,46.77
2018-02-08T22:19:56.679Z,53.27
2018-02-08T22:22:25.068Z,49.00
2018-02-08T22:24:53.407Z,50.43
2018-02-08T22:27:21.080Z,44.10
2018-02-08T22:29:48.736Z,46.37
2018-02-08T22:32:16.334Z,48.53
2018-02-08T22:34:43.938Z,47.33
2018-02-08T22:37:11.539Z,44.00
2018-02-08T22:39:39.175Z,46.37
2018-02-08T22:42:06.835Z,48.33
2018-02-08T22:44:34.422Z,46.03
2018-02-08T22:47:02.019Z,44.47
2018-02-08T22:49:29.617Z,45.83
2018-02-08T22:51:57.209Z,46.53
2018-02-08T22:54:24.797Z,49.17
2018-02-08T22:56:52.391Z,48.03
2018-02-08T22:59:20.016Z,44.93
2018-02-08T23:01:47.652Z,46.47
2018-02-08T23:04:15.292Z,45.40
2018-02-08T23:06:43.670Z,45.33
2018-02-08T23:09:12.100Z,45.80
2018-02-08T23:11:39.680Z,47.60
2018-02-08T23:14:07.268Z,42.93
2018-02-08T23:16:35.337Z,46.40
2018-02-08T23:19:02.958Z,45.53
2018-02-08T23:21:30.525Z,43.13
2018-02-08T23:23:58.107Z,44.70
2018-02-08T23:26:25.731Z,41.30
2018-02-08T23:28:54.635Z,43.50
2018-02-08T23:31:22.243Z,44.67
2018-02-08T23:33:49.857Z,46.27
2018-02-08T23:36:18.211Z,47.13
2018-02-08T23:38:45.793Z,40.87
2018-02-08T23:41:13.470Z,41.37
2018-02-08T23:43:41.052Z,48.00
2018-02-08T23:46:08.668Z,44.23
2018-02-08T23:48:36.268Z,50.57
2018-02-08T23:51:03.842Z,45.00
2018-02-08T23:53:32.200Z,44.23
2018-02-08T23:55:59.824Z,45.20
2018-02-08T23:58:27.421Z,45.23
